sensor_id;sensor_type;location;lat;lon;timestamp;temperature;humidity
71668;DHT22;59504;54.806;9.640;2023-07-29T00:02:12;17.20;67.30
71668;DHT22;59504;54.806;9.640;2023-07-29T00:04:31;17.20;68.20
71668;DHT22;59504;54.806;9.640;2023-07-29T00:06:50;17.20;68.00
71668;DHT22;59504;54.806;9.640;2023-07-29T00:09:09;17.20;69.20
71668;DHT22;59504;54.806;9.640;2023-07-29T00:11:29;17.20;68.10
71668;DHT22;59504;54.806;9.640;2023-07-29T00:13:49;17.20;68.70
71668;DHT22;59504;54.806;9.640;2023-07-29T00:16:09;17.20;68.90
71668;DHT22;59504;54.806;9.640;2023-07-29T00:18:28;17.20;69.20
71668;DHT22;59504;54.806;9.640;2023-07-29T00:20:47;17.20;69.30
71668;DHT22;59504;54.806;9.640;2023-07-29T00:22:53;17.30;69.80
71668;DHT22;59504;54.806;9.640;2023-07-29T00:25:15;17.20;69.20
71668;DHT22;59504;54.806;9.640;2023-07-29T00:27:36;17.20;69.70
71668;DHT22;59504;54.806;9.640;2023-07-29T00:29:56;17.20;70.20
71668;DHT22;59504;54.806;9.640;2023-07-29T00:32:17;17.30;69.60
71668;DHT22;59504;54.806;9.640;2023-07-29T00:34:37;17.30;69.30
71668;DHT22;59504;54.806;9.640;2023-07-29T00:36:57;17.30;69.70
71668;DHT22;59504;54.806;9.640;2023-07-29T00:39:18;17.30;70.10
71668;DHT22;59504;54.806;9.640;2023-07-29T00:41:39;17.30;69.80
71668;DHT22;59504;54.806;9.640;2023-07-29T00:44:00;17.30;69.60
71668;DHT22;59504;54.806;9.640;2023-07-29T00:46:00;17.40;69.40
71668;DHT22;59504;54.806;9.640;2023-07-29T00:48:06;17.30;69.30
71668;DHT22;59504;54.806;9.640;2023-07-29T00:50:07;17.40;71.00
71668;DHT22;59504;54.806;9.640;2023-07-29T00:52:09;17.30;71.00
71668;DHT22;59504;54.806;9.640;2023-07-29T00:54:12;17.30;70.90
71668;DHT22;59504;54.806;9.640;2023-07-29T00:56:16;17.40;70.80
71668;DHT22;59504;54.806;9.640;2023-07-29T00:58:17;17.40;70.60
71668;DHT22;59504;54.806;9.640;2023-07-29T01:00:18;17.40;70.80
71668;DHT22;59504;54.806;9.640;2023-07-29T01:02:27;17.40;70.90
71668;DHT22;59504;54.806;9.640;2023-07-29T01:04:27;17.40;71.50
71668;DHT22;59504;54.806;9.640;2023-07-29T01:09:01;17.40;70.90
71668;DHT22;59504;54.806;9.640;2023-07-29T01:14:02;17.40;70.60
71668;DHT22;59504;54.806;9.640;2023-07-29T01:16:25;17.40;70.40
71668;DHT22;59504;54.806;9.640;2023-07-29T01:18:48;17.40;70.40
71668;DHT22;59504;54.806;9.640;2023-07-29T01:21:10;17.40;70.60
71668;DHT22;59504;54.806;9.640;2023-07-29T01:23:31;17.50;70.50
71668;DHT22;59504;54.806;9.640;2023-07-29T01:25:52;17.50;70.30
71668;DHT22;59504;54.806;9.640;2023-07-29T01:28:13;17.50;70.40
71668;DHT22;59504;54.806;9.640;2023-07-29T01:30:37;17.50;70.30
71668;DHT22;59504;54.806;9.640;2023-07-29T01:33:00;17.60;70.50
71668;DHT22;59504;54.806;9.640;2023-07-29T01:35:25;17.60;70.10
71668;DHT22;59504;54.806;9.640;2023-07-29T01:37:48;17.60;70.40
71668;DHT22;59504;54.806;9.640;2023-07-29T01:40:09;17.50;68.90
71668;DHT22;59504;54.806;9.640;2023-07-29T01:42:30;17.60;69.50
71668;DHT22;59504;54.806;9.640;2023-07-29T01:44:51;17.60;69.30
71668;DHT22;59504;54.806;9.640;2023-07-29T01:47:12;17.60;69.40
71668;DHT22;59504;54.806;9.640;2023-07-29T01:49:32;17.60;69.50
71668;DHT22;59504;54.806;9.640;2023-07-29T01:51:53;17.60;69.70
71668;DHT22;59504;54.806;9.640;2023-07-29T01:54:13;17.60;69.60
71668;DHT22;59504;54.806;9.640;2023-07-29T01:56:34;17.60;69.50
71668;DHT22;59504;54.806;9.640;2023-07-29T01:58:55;17.60;69.90
71668;DHT22;59504;54.806;9.640;2023-07-29T02:01:15;17.60;69.80
71668;DHT22;59504;54.806;9.640;2023-07-29T02:03:36;17.60;69.80
71668;DHT22;59504;54.806;9.640;2023-07-29T02:05:56;17.60;69.90
71668;DHT22;59504;54.806;9.640;2023-07-29T02:08:17;17.60;69.90
71668;DHT22;59504;54.806;9.640;2023-07-29T02:10:38;17.50;69.70
71668;DHT22;59504;54.806;9.640;2023-07-29T02:12:58;17.60;69.80
71668;DHT22;59504;54.806;9.640;2023-07-29T02:15:19;17.50;69.70
71668;DHT22;59504;54.806;9.640;2023-07-29T02:17:41;17.60;69.70
71668;DHT22;59504;54.806;9.640;2023-07-29T02:20:02;17.50;69.60
71668;DHT22;59504;54.806;9.640;2023-07-29T02:22:24;17.50;69.80
71668;DHT22;59504;54.806;9.640;2023-07-29T02:24:44;17.50;69.90
71668;DHT22;59504;54.806;9.640;2023-07-29T02:27:05;17.50;69.50
71668;DHT22;59504;54.806;9.640;2023-07-29T02:29:25;17.50;69.60
71668;DHT22;59504;54.806;9.640;2023-07-29T02:31:46;17.50;69.60
71668;DHT22;59504;54.806;9.640;2023-07-29T02:34:07;17.50;70.00
71668;DHT22;59504;54.806;9.640;2023-07-29T02:36:27;17.50;69.90
71668;DHT22;59504;54.806;9.640;2023-07-29T02:38:46;17.50;70.00
71668;DHT22;59504;54.806;9.640;2023-07-29T02:41:05;17.40;69.80
71668;DHT22;59504;54.806;9.640;2023-07-29T02:43:06;17.50;70.20
71668;DHT22;59504;54.806;9.640;2023-07-29T02:45:07;17.40;69.90
71668;DHT22;59504;54.806;9.640;2023-07-29T02:47:10;17.40;69.90
71668;DHT22;59504;54.806;9.640;2023-07-29T02:49:10;17.40;69.70
71668;DHT22;59504;54.806;9.640;2023-07-29T02:51:11;17.50;69.90
71668;DHT22;59504;54.806;9.640;2023-07-29T02:53:11;17.40;69.70
71668;DHT22;59504;54.806;9.640;2023-07-29T02:55:12;17.50;69.80
71668;DHT22;59504;54.806;9.640;2023-07-29T02:57:13;17.50;69.80
71668;DHT22;59504;54.806;9.640;2023-07-29T02:59:14;17.40;69.80
71668;DHT22;59504;54.806;9.640;2023-07-29T03:01:14;17.50;69.40
71668;DHT22;59504;54.806;9.640;2023-07-29T03:03:15;17.40;69.50
71668;DHT22;59504;54.806;9.640;2023-07-29T03:05:16;17.40;69.40
71668;DHT22;59504;54.806;9.640;2023-07-29T03:07:17;17.40;69.60
71668;DHT22;59504;54.806;9.640;2023-07-29T03:09:17;17.40;70.10
71668;DHT22;59504;54.806;9.640;2023-07-29T03:11:18;17.40;70.20
71668;DHT22;59504;54.806;9.640;2023-07-29T03:13:18;17.40;70.10
71668;DHT22;59504;54.806;9.640;2023-07-29T03:15:22;17.40;70.80
71668;DHT22;59504;54.806;9.640;2023-07-29T03:17:23;17.40;70.00
71668;DHT22;59504;54.806;9.640;2023-07-29T03:19:23;17.40;71.00
71668;DHT22;59504;54.806;9.640;2023-07-29T03:21:24;17.40;70.80
71668;DHT22;59504;54.806;9.640;2023-07-29T03:23:27;17.40;71.10
71668;DHT22;59504;54.806;9.640;2023-07-29T03:25:27;17.40;70.70
71668;DHT22;59504;54.806;9.640;2023-07-29T03:27:29;17.50;70.60
71668;DHT22;59504;54.806;9.640;2023-07-29T03:29:30;17.40;70.40
71668;DHT22;59504;54.806;9.640;2023-07-29T03:31:31;17.40;70.40
71668;DHT22;59504;54.806;9.640;2023-07-29T03:33:32;17.40;70.40
71668;DHT22;59504;54.806;9.640;2023-07-29T03:35:32;17.50;70.60
71668;DHT22;59504;54.806;9.640;2023-07-29T03:37:33;17.40;70.40
71668;DHT22;59504;54.806;9.640;2023-07-29T03:39:33;17.40;71.10
71668;DHT22;59504;54.806;9.640;2023-07-29T03:41:34;17.50;70.40
71668;DHT22;59504;54.806;9.640;2023-07-29T03:43:34;17.40;70.30
71668;DHT22;59504;54.806;9.640;2023-07-29T03:45:35;17.40;70.40
71668;DHT22;59504;54.806;9.640;2023-07-29T03:47:36;17.50;70.60
71668;DHT22;59504;54.806;9.640;2023-07-29T03:49:36;17.40;71.30
71668;DHT22;59504;54.806;9.640;2023-07-29T03:51:37;17.40;70.60
71668;DHT22;59504;54.806;9.640;2023-07-29T03:53:37;17.50;70.60
71668;DHT22;59504;54.806;9.640;2023-07-29T03:55:38;17.40;70.30
71668;DHT22;59504;54.806;9.640;2023-07-29T03:57:39;17.40;70.40
71668;DHT22;59504;54.806;9.640;2023-07-29T03:59:41;17.50;70.40
71668;DHT22;59504;54.806;9.640;2023-07-29T04:01:42;17.40;70.30
71668;DHT22;59504;54.806;9.640;2023-07-29T04:03:42;17.50;70.30
71668;DHT22;59504;54.806;9.640;2023-07-29T04:05:43;17.40;70.20
71668;DHT22;59504;54.806;9.640;2023-07-29T04:07:43;17.40;70.30
71668;DHT22;59504;54.806;9.640;2023-07-29T04:09:46;17.40;70.30
71668;DHT22;59504;54.806;9.640;2023-07-29T04:11:47;17.40;70.50
71668;DHT22;59504;54.806;9.640;2023-07-29T04:13:48;17.40;70.50
71668;DHT22;59504;54.806;9.640;2023-07-29T04:15:48;17.40;70.50
71668;DHT22;59504;54.806;9.640;2023-07-29T04:17:49;17.40;70.50
71668;DHT22;59504;54.806;9.640;2023-07-29T04:19:49;17.40;70.30
71668;DHT22;59504;54.806;9.640;2023-07-29T04:21:50;17.40;70.10
71668;DHT22;59504;54.806;9.640;2023-07-29T04:23:51;17.40;70.00
71668;DHT22;59504;54.806;9.640;2023-07-29T04:25:51;17.40;70.20
71668;DHT22;59504;54.806;9.640;2023-07-29T04:27:52;17.40;70.20
71668;DHT22;59504;54.806;9.640;2023-07-29T04:29:52;17.40;70.20
71668;DHT22;59504;54.806;9.640;2023-07-29T04:31:54;17.40;70.30
71668;DHT22;59504;54.806;9.640;2023-07-29T04:33:55;17.50;70.50
71668;DHT22;59504;54.806;9.640;2023-07-29T04:35:55;17.50;70.60
71668;DHT22;59504;54.806;9.640;2023-07-29T04:37:57;17.50;70.60
71668;DHT22;59504;54.806;9.640;2023-07-29T04:39:59;17.50;70.60
71668;DHT22;59504;54.806;9.640;2023-07-29T04:42:19;17.50;70.60
71668;DHT22;59504;54.806;9.640;2023-07-29T04:44:20;17.50;70.70
71668;DHT22;59504;54.806;9.640;2023-07-29T04:46:40;17.50;70.60
71668;DHT22;59504;54.806;9.640;2023-07-29T04:49:01;17.50;70.60
71668;DHT22;59504;54.806;9.640;2023-07-29T04:51:02;17.50;70.70
71668;DHT22;59504;54.806;9.640;2023-07-29T04:53:23;17.50;70.60
71668;DHT22;59504;54.806;9.640;2023-07-29T04:55:43;17.60;70.80
71668;DHT22;59504;54.806;9.640;2023-07-29T04:57:45;17.60;70.70
71668;DHT22;59504;54.806;9.640;2023-07-29T05:00:06;17.60;70.50
71668;DHT22;59504;54.806;9.640;2023-07-29T05:02:26;17.60;70.50
71668;DHT22;59504;54.806;9.640;2023-07-29T05:04:47;17.60;70.60
71668;DHT22;59504;54.806;9.640;2023-07-29T05:07:07;17.60;70.70
71668;DHT22;59504;54.806;9.640;2023-07-29T05:09:28;17.50;70.50
71668;DHT22;59504;54.806;9.640;2023-07-29T05:11:48;17.60;70.30
71668;DHT22;59504;54.806;9.640;2023-07-29T05:14:09;17.60;70.10
71668;DHT22;59504;54.806;9.640;2023-07-29T05:16:30;17.60;70.70
71668;DHT22;59504;54.806;9.640;2023-07-29T05:18:50;17.60;70.50
71668;DHT22;59504;54.806;9.640;2023-07-29T05:21:11;17.60;70.50
71668;DHT22;59504;54.806;9.640;2023-07-29T05:23:34;17.60;70.10
71668;DHT22;59504;54.806;9.640;2023-07-29T05:25:55;17.60;69.80
71668;DHT22;59504;54.806;9.640;2023-07-29T05:28:15;17.60;71.20
71668;DHT22;59504;54.806;9.640;2023-07-29T05:30:36;17.60;70.90
71668;DHT22;59504;54.806;9.640;2023-07-29T05:32:57;17.60;70.30
71668;DHT22;59504;54.806;9.640;2023-07-29T05:35:18;17.50;70.00
71668;DHT22;59504;54.806;9.640;2023-07-29T05:37:38;17.60;69.90
71668;DHT22;59504;54.806;9.640;2023-07-29T05:40:02;17.50;69.40
71668;DHT22;59504;54.806;9.640;2023-07-29T05:42:23;17.50;69.20
71668;DHT22;59504;54.806;9.640;2023-07-29T05:44:43;17.50;70.30
71668;DHT22;59504;54.806;9.640;2023-07-29T05:47:04;17.50;69.90
71668;DHT22;59504;54.806;9.640;2023-07-29T05:49:24;17.50;69.70
71668;DHT22;59504;54.806;9.640;2023-07-29T05:51:45;17.50;69.80
71668;DHT22;59504;54.806;9.640;2023-07-29T05:54:05;17.50;70.10
71668;DHT22;59504;54.806;9.640;2023-07-29T05:56:26;17.60;70.10
71668;DHT22;59504;54.806;9.640;2023-07-29T05:58:46;17.60;70.40
71668;DHT22;59504;54.806;9.640;2023-07-29T06:01:07;17.60;70.70
71668;DHT22;59504;54.806;9.640;2023-07-29T06:03:27;17.60;70.80
71668;DHT22;59504;54.806;9.640;2023-07-29T06:05:48;17.70;71.10
71668;DHT22;59504;54.806;9.640;2023-07-29T06:08:09;17.70;71.00
71668;DHT22;59504;54.806;9.640;2023-07-29T06:10:29;17.70;71.10
71668;DHT22;59504;54.806;9.640;2023-07-29T06:12:50;17.70;71.10
71668;DHT22;59504;54.806;9.640;2023-07-29T06:15:10;17.70;71.20
71668;DHT22;59504;54.806;9.640;2023-07-29T06:17:32;17.90;71.50
71668;DHT22;59504;54.806;9.640;2023-07-29T06:19:52;17.80;71.50
71668;DHT22;59504;54.806;9.640;2023-07-29T06:22:13;17.90;71.60
71668;DHT22;59504;54.806;9.640;2023-07-29T06:24:33;17.90;71.70
71668;DHT22;59504;54.806;9.640;2023-07-29T06:26:54;18.00;71.90
71668;DHT22;59504;54.806;9.640;2023-07-29T06:29:14;18.00;72.00
71668;DHT22;59504;54.806;9.640;2023-07-29T06:31:35;18.00;71.80
71668;DHT22;59504;54.806;9.640;2023-07-29T06:33:56;18.10;72.70
71668;DHT22;59504;54.806;9.640;2023-07-29T06:36:16;18.10;72.50
71668;DHT22;59504;54.806;9.640;2023-07-29T06:38:37;18.20;72.20
71668;DHT22;59504;54.806;9.640;2023-07-29T06:40:58;18.30;72.10
71668;DHT22;59504;54.806;9.640;2023-07-29T06:43:17;18.40;72.20
71668;DHT22;59504;54.806;9.640;2023-07-29T06:45:37;18.50;73.20
71668;DHT22;59504;54.806;9.640;2023-07-29T06:47:56;18.50;73.00
71668;DHT22;59504;54.806;9.640;2023-07-29T06:50:15;18.60;73.00
71668;DHT22;59504;54.806;9.640;2023-07-29T06:52:34;18.70;73.50
71668;DHT22;59504;54.806;9.640;2023-07-29T06:54:55;18.70;74.00
71668;DHT22;59504;54.806;9.640;2023-07-29T06:57:14;18.80;73.90
71668;DHT22;59504;54.806;9.640;2023-07-29T06:59:34;18.90;74.10
71668;DHT22;59504;54.806;9.640;2023-07-29T07:01:53;19.00;73.80
71668;DHT22;59504;54.806;9.640;2023-07-29T07:04:12;19.10;74.50
71668;DHT22;59504;54.806;9.640;2023-07-29T07:06:31;19.10;74.00
71668;DHT22;59504;54.806;9.640;2023-07-29T07:08:51;19.20;74.30
71668;DHT22;59504;54.806;9.640;2023-07-29T07:11:10;19.40;73.40
71668;DHT22;59504;54.806;9.640;2023-07-29T07:13:30;19.40;73.50
71668;DHT22;59504;54.806;9.640;2023-07-29T07:15:49;19.50;73.30
71668;DHT22;59504;54.806;9.640;2023-07-29T07:18:08;19.60;73.10
71668;DHT22;59504;54.806;9.640;2023-07-29T07:20:28;19.70;72.90
71668;DHT22;59504;54.806;9.640;2023-07-29T07:22:48;19.80;73.40
71668;DHT22;59504;54.806;9.640;2023-07-29T07:25:07;19.90;72.70
71668;DHT22;59504;54.806;9.640;2023-07-29T07:27:26;20.00;73.40
71668;DHT22;59504;54.806;9.640;2023-07-29T07:29:46;20.10;73.20
71668;DHT22;59504;54.806;9.640;2023-07-29T07:32:05;20.10;72.40
71668;DHT22;59504;54.806;9.640;2023-07-29T07:34:24;20.20;72.10
71668;DHT22;59504;54.806;9.640;2023-07-29T07:36:43;20.20;71.70
71668;DHT22;59504;54.806;9.640;2023-07-29T07:39:02;20.30;71.90
71668;DHT22;59504;54.806;9.640;2023-07-29T07:41:21;20.30;71.40
71668;DHT22;59504;54.806;9.640;2023-07-29T07:43:41;20.40;71.20
71668;DHT22;59504;54.806;9.640;2023-07-29T07:46:01;20.40;71.10
71668;DHT22;59504;54.806;9.640;2023-07-29T07:48:20;20.50;71.20
71668;DHT22;59504;54.806;9.640;2023-07-29T07:50:39;20.50;71.00
71668;DHT22;59504;54.806;9.640;2023-07-29T07:52:59;20.60;70.80
71668;DHT22;59504;54.806;9.640;2023-07-29T07:55:18;20.60;70.60
71668;DHT22;59504;54.806;9.640;2023-07-29T07:57:37;20.60;70.40
71668;DHT22;59504;54.806;9.640;2023-07-29T07:59:56;20.70;70.20
71668;DHT22;59504;54.806;9.640;2023-07-29T08:02:15;20.70;70.10
71668;DHT22;59504;54.806;9.640;2023-07-29T08:04:34;20.80;70.70
71668;DHT22;59504;54.806;9.640;2023-07-29T08:06:54;20.80;70.00
71668;DHT22;59504;54.806;9.640;2023-07-29T08:09:13;20.80;69.60
71668;DHT22;59504;54.806;9.640;2023-07-29T08:11:33;20.80;69.50
71668;DHT22;59504;54.806;9.640;2023-07-29T08:13:53;20.90;69.50
71668;DHT22;59504;54.806;9.640;2023-07-29T08:16:15;20.90;69.70
71668;DHT22;59504;54.806;9.640;2023-07-29T08:18:34;20.90;69.40
71668;DHT22;59504;54.806;9.640;2023-07-29T08:20:54;21.00;69.40
71668;DHT22;59504;54.806;9.640;2023-07-29T08:23:14;21.00;69.30
71668;DHT22;59504;54.806;9.640;2023-07-29T08:25:35;21.00;69.10
71668;DHT22;59504;54.806;9.640;2023-07-29T08:27:55;21.00;68.80
71668;DHT22;59504;54.806;9.640;2023-07-29T08:30:14;21.10;68.50
71668;DHT22;59504;54.806;9.640;2023-07-29T08:32:34;21.10;69.30
71668;DHT22;59504;54.806;9.640;2023-07-29T08:34:53;21.10;69.10
71668;DHT22;59504;54.806;9.640;2023-07-29T08:37:13;21.20;68.20
71668;DHT22;59504;54.806;9.640;2023-07-29T08:39:35;21.20;67.80
71668;DHT22;59504;54.806;9.640;2023-07-29T08:41:59;21.20;67.80
71668;DHT22;59504;54.806;9.640;2023-07-29T08:44:26;21.20;67.70
71668;DHT22;59504;54.806;9.640;2023-07-29T08:46:49;21.20;67.60
71668;DHT22;59504;54.806;9.640;2023-07-29T08:49:12;21.20;67.50
71668;DHT22;59504;54.806;9.640;2023-07-29T08:51:37;21.20;67.50
71668;DHT22;59504;54.806;9.640;2023-07-29T08:53:58;21.30;67.60
71668;DHT22;59504;54.806;9.640;2023-07-29T08:56:17;21.30;67.70
71668;DHT22;59504;54.806;9.640;2023-07-29T08:58:36;21.30;67.70
71668;DHT22;59504;54.806;9.640;2023-07-29T09:00:56;21.30;68.30
71668;DHT22;59504;54.806;9.640;2023-07-29T09:03:15;21.40;67.60
71668;DHT22;59504;54.806;9.640;2023-07-29T09:05:34;21.40;67.30
71668;DHT22;59504;54.806;9.640;2023-07-29T09:07:54;21.40;66.70
71668;DHT22;59504;54.806;9.640;2023-07-29T09:10:13;21.40;66.70
71668;DHT22;59504;54.806;9.640;2023-07-29T09:12:33;21.40;66.40
71668;DHT22;59504;54.806;9.640;2023-07-29T09:14:52;21.30;66.20
71668;DHT22;59504;54.806;9.640;2023-07-29T09:17:13;21.50;66.50
71668;DHT22;59504;54.806;9.640;2023-07-29T09:19:33;21.40;67.10
71668;DHT22;59504;54.806;9.640;2023-07-29T09:21:52;21.50;66.40
71668;DHT22;59504;54.806;9.640;2023-07-29T09:24:12;21.50;66.70
71668;DHT22;59504;54.806;9.640;2023-07-29T09:26:34;21.50;67.00
71668;DHT22;59504;54.806;9.640;2023-07-29T09:28:57;21.60;67.20
71668;DHT22;59504;54.806;9.640;2023-07-29T09:31:22;21.60;67.20
71668;DHT22;59504;54.806;9.640;2023-07-29T09:33:42;21.70;67.10
71668;DHT22;59504;54.806;9.640;2023-07-29T09:36:01;21.70;66.70
71668;DHT22;59504;54.806;9.640;2023-07-29T09:38:28;21.80;66.80
71668;DHT22;59504;54.806;9.640;2023-07-29T09:40:48;21.80;66.70
71668;DHT22;59504;54.806;9.640;2023-07-29T09:43:08;21.90;67.00
71668;DHT22;59504;54.806;9.640;2023-07-29T09:45:28;22.00;66.50
71668;DHT22;59504;54.806;9.640;2023-07-29T09:47:47;22.10;67.00
71668;DHT22;59504;54.806;9.640;2023-07-29T09:50:06;22.10;65.30
71668;DHT22;59504;54.806;9.640;2023-07-29T09:52:28;22.10;65.60
71668;DHT22;59504;54.806;9.640;2023-07-29T09:54:50;22.30;66.00
71668;DHT22;59504;54.806;9.640;2023-07-29T09:57:10;22.30;66.00
71668;DHT22;59504;54.806;9.640;2023-07-29T09:59:33;22.40;65.40
71668;DHT22;59504;54.806;9.640;2023-07-29T10:01:52;22.50;65.20
71668;DHT22;59504;54.806;9.640;2023-07-29T10:04:11;22.60;63.90
71668;DHT22;59504;54.806;9.640;2023-07-29T10:06:32;22.60;63.00
71668;DHT22;59504;54.806;9.640;2023-07-29T10:08:55;22.70;63.40
71668;DHT22;59504;54.806;9.640;2023-07-29T10:11:17;22.80;64.10
71668;DHT22;59504;54.806;9.640;2023-07-29T10:13:39;22.90;63.10
71668;DHT22;59504;54.806;9.640;2023-07-29T10:15:58;22.90;62.20
71668;DHT22;59504;54.806;9.640;2023-07-29T10:18:17;22.90;62.80
71668;DHT22;59504;54.806;9.640;2023-07-29T10:20:37;22.90;62.40
71668;DHT22;59504;54.806;9.640;2023-07-29T10:22:59;23.00;61.90
71668;DHT22;59504;54.806;9.640;2023-07-29T10:25:22;23.00;61.50
71668;DHT22;59504;54.806;9.640;2023-07-29T10:27:48;23.00;61.70
71668;DHT22;59504;54.806;9.640;2023-07-29T10:30:11;23.00;62.00
71668;DHT22;59504;54.806;9.640;2023-07-29T10:32:31;23.00;61.90
71668;DHT22;59504;54.806;9.640;2023-07-29T10:34:50;23.00;60.70
71668;DHT22;59504;54.806;9.640;2023-07-29T10:37:10;23.00;60.60
71668;DHT22;59504;54.806;9.640;2023-07-29T10:39:39;23.00;60.50
71668;DHT22;59504;54.806;9.640;2023-07-29T10:42:02;22.90;60.60
71668;DHT22;59504;54.806;9.640;2023-07-29T10:44:45;22.80;62.00
71668;DHT22;59504;54.806;9.640;2023-07-29T10:47:12;22.80;61.80
71668;DHT22;59504;54.806;9.640;2023-07-29T10:49:34;22.70;61.90
71668;DHT22;59504;54.806;9.640;2023-07-29T10:51:54;22.70;62.20
71668;DHT22;59504;54.806;9.640;2023-07-29T10:54:14;22.60;62.60
71668;DHT22;59504;54.806;9.640;2023-07-29T10:56:34;22.60;62.80
71668;DHT22;59504;54.806;9.640;2023-07-29T10:58:54;22.50;62.10
71668;DHT22;59504;54.806;9.640;2023-07-29T11:01:20;22.50;62.00
71668;DHT22;59504;54.806;9.640;2023-07-29T11:04:00;22.40;62.00
71668;DHT22;59504;54.806;9.640;2023-07-29T11:06:19;22.40;62.40
71668;DHT22;59504;54.806;9.640;2023-07-29T11:08:39;22.30;63.40
71668;DHT22;59504;54.806;9.640;2023-07-29T11:11:03;22.30;62.70
71668;DHT22;59504;54.806;9.640;2023-07-29T11:13:22;22.20;62.90
71668;DHT22;59504;54.806;9.640;2023-07-29T11:15:42;22.20;63.20
71668;DHT22;59504;54.806;9.640;2023-07-29T11:18:01;22.20;63.40
71668;DHT22;59504;54.806;9.640;2023-07-29T11:20:22;22.20;63.70
71668;DHT22;59504;54.806;9.640;2023-07-29T11:22:42;22.20;63.90
71668;DHT22;59504;54.806;9.640;2023-07-29T11:25:01;22.20;63.90
71668;DHT22;59504;54.806;9.640;2023-07-29T11:27:21;22.20;63.90
71668;DHT22;59504;54.806;9.640;2023-07-29T11:29:40;22.20;63.80
71668;DHT22;59504;54.806;9.640;2023-07-29T11:31:59;22.20;64.30
71668;DHT22;59504;54.806;9.640;2023-07-29T11:34:24;22.30;63.70
71668;DHT22;59504;54.806;9.640;2023-07-29T11:36:49;22.30;64.20
71668;DHT22;59504;54.806;9.640;2023-07-29T11:39:11;22.30;62.20
71668;DHT22;59504;54.806;9.640;2023-07-29T11:41:33;22.30;63.00
71668;DHT22;59504;54.806;9.640;2023-07-29T11:43:52;22.40;64.30
71668;DHT22;59504;54.806;9.640;2023-07-29T11:46:11;22.50;64.20
71668;DHT22;59504;54.806;9.640;2023-07-29T11:48:32;22.60;64.00
71668;DHT22;59504;54.806;9.640;2023-07-29T11:50:54;22.70;64.00
71668;DHT22;59504;54.806;9.640;2023-07-29T11:53:14;22.80;63.60
71668;DHT22;59504;54.806;9.640;2023-07-29T11:55:33;22.90;62.80
71668;DHT22;59504;54.806;9.640;2023-07-29T11:57:52;23.00;62.40
71668;DHT22;59504;54.806;9.640;2023-07-29T12:00:15;23.00;62.00
71668;DHT22;59504;54.806;9.640;2023-07-29T12:02:36;23.10;61.30
71668;DHT22;59504;54.806;9.640;2023-07-29T12:04:57;23.10;61.90
71668;DHT22;59504;54.806;9.640;2023-07-29T12:07:17;23.20;60.90
71668;DHT22;59504;54.806;9.640;2023-07-29T12:09:39;23.20;60.60
71668;DHT22;59504;54.806;9.640;2023-07-29T12:11:59;23.30;59.90
71668;DHT22;59504;54.806;9.640;2023-07-29T12:14:18;23.30;60.10
71668;DHT22;59504;54.806;9.640;2023-07-29T12:16:42;23.30;60.60
71668;DHT22;59504;54.806;9.640;2023-07-29T12:19:01;23.40;59.90
71668;DHT22;59504;54.806;9.640;2023-07-29T12:21:20;23.40;59.90
71668;DHT22;59504;54.806;9.640;2023-07-29T12:23:40;23.40;59.70
71668;DHT22;59504;54.806;9.640;2023-07-29T12:25:40;23.50;59.60
71668;DHT22;59504;54.806;9.640;2023-07-29T12:27:44;23.50;59.50
71668;DHT22;59504;54.806;9.640;2023-07-29T12:29:47;23.50;59.60
71668;DHT22;59504;54.806;9.640;2023-07-29T12:31:58;23.50;60.80
71668;DHT22;59504;54.806;9.640;2023-07-29T12:34:07;23.60;60.20
71668;DHT22;59504;54.806;9.640;2023-07-29T12:36:12;23.50;60.10
71668;DHT22;59504;54.806;9.640;2023-07-29T12:38:31;23.50;59.50
71668;DHT22;59504;54.806;9.640;2023-07-29T12:40:51;23.50;59.40
71668;DHT22;59504;54.806;9.640;2023-07-29T12:42:55;23.50;59.30
71668;DHT22;59504;54.806;9.640;2023-07-29T12:45:16;23.40;59.10
71668;DHT22;59504;54.806;9.640;2023-07-29T12:47:38;23.40;58.90
71668;DHT22;59504;54.806;9.640;2023-07-29T12:50:01;23.40;59.20
71668;DHT22;59504;54.806;9.640;2023-07-29T12:52:21;23.30;59.20
71668;DHT22;59504;54.806;9.640;2023-07-29T12:54:22;23.30;59.10
71668;DHT22;59504;54.806;9.640;2023-07-29T12:56:49;23.30;59.00
71668;DHT22;59504;54.806;9.640;2023-07-29T12:59:09;23.30;58.90
71668;DHT22;59504;54.806;9.640;2023-07-29T13:01:32;23.20;58.80
71668;DHT22;59504;54.806;9.640;2023-07-29T13:03:53;23.20;59.00
71668;DHT22;59504;54.806;9.640;2023-07-29T13:06:16;23.20;58.90
71668;DHT22;59504;54.806;9.640;2023-07-29T13:08:43;23.10;58.80
71668;DHT22;59504;54.806;9.640;2023-07-29T13:11:05;23.10;59.00
71668;DHT22;59504;54.806;9.640;2023-07-29T13:13:25;23.10;59.20
71668;DHT22;59504;54.806;9.640;2023-07-29T13:15:46;23.20;59.30
71668;DHT22;59504;54.806;9.640;2023-07-29T13:18:06;23.20;58.80
71668;DHT22;59504;54.806;9.640;2023-07-29T13:20:27;23.20;58.60
71668;DHT22;59504;54.806;9.640;2023-07-29T13:22:48;23.20;58.00
71668;DHT22;59504;54.806;9.640;2023-07-29T13:25:08;23.30;58.30
71668;DHT22;59504;54.806;9.640;2023-07-29T13:27:29;23.30;58.90
71668;DHT22;59504;54.806;9.640;2023-07-29T13:29:52;23.30;58.90
71668;DHT22;59504;54.806;9.640;2023-07-29T13:32:13;23.30;58.40
71668;DHT22;59504;54.806;9.640;2023-07-29T13:34:33;23.40;58.50
71668;DHT22;59504;54.806;9.640;2023-07-29T13:36:59;23.40;58.30
71668;DHT22;59504;54.806;9.640;2023-07-29T13:39:23;23.40;58.00
71668;DHT22;59504;54.806;9.640;2023-07-29T13:41:43;23.40;58.00
71668;DHT22;59504;54.806;9.640;2023-07-29T13:44:04;23.40;58.00
71668;DHT22;59504;54.806;9.640;2023-07-29T13:46:25;23.40;57.90
71668;DHT22;59504;54.806;9.640;2023-07-29T13:48:48;23.40;58.20
71668;DHT22;59504;54.806;9.640;2023-07-29T13:51:09;23.40;57.90
71668;DHT22;59504;54.806;9.640;2023-07-29T13:53:30;23.40;57.00
71668;DHT22;59504;54.806;9.640;2023-07-29T13:55:50;23.40;57.50
71668;DHT22;59504;54.806;9.640;2023-07-29T13:58:11;23.40;57.80
71668;DHT22;59504;54.806;9.640;2023-07-29T14:00:31;23.40;57.70
71668;DHT22;59504;54.806;9.640;2023-07-29T14:02:52;23.40;57.40
71668;DHT22;59504;54.806;9.640;2023-07-29T14:05:12;23.40;57.40
71668;DHT22;59504;54.806;9.640;2023-07-29T14:07:34;23.40;57.10
71668;DHT22;59504;54.806;9.640;2023-07-29T14:09:55;23.40;57.20
71668;DHT22;59504;54.806;9.640;2023-07-29T14:12:15;23.40;57.20
71668;DHT22;59504;54.806;9.640;2023-07-29T14:14:36;23.40;57.40
71668;DHT22;59504;54.806;9.640;2023-07-29T14:16:56;23.40;57.20
71668;DHT22;59504;54.806;9.640;2023-07-29T14:19:17;23.50;57.30
71668;DHT22;59504;54.806;9.640;2023-07-29T14:21:36;23.50;57.50
71668;DHT22;59504;54.806;9.640;2023-07-29T14:23:56;23.50;57.40
71668;DHT22;59504;54.806;9.640;2023-07-29T14:26:15;23.50;57.90
71668;DHT22;59504;54.806;9.640;2023-07-29T14:28:35;23.60;57.20